Time;durP1;ratioP1;P1;durP2;ratioP2;P2;SDS_P1;SDS_P2;PMS_P1;PMS_P2;Temp;Humidity;BMP_temperature;BMP_pressure;BME280_temperature;BME280_humidity;BME280_pressure;Samples;Min_cycle;Max_cycle;Signal;HPM_P1;HPM_P2
2024/03/05 00:00:39;;;;;;;;;1.00;1.00;;;;;;;;5081908;27;46924;-49
2024/03/05 00:03:05;;;;;;;;;0.67;0.00;;;;;;;;5080760;27;45496;-47
2024/03/05 00:05:30;;;;;;;;;0.00;0.00;;;;;;;;5084273;27;45326;-47
2024/03/05 00:07:55;;;;;;;;;2.00;0.67;;;;;;;;5083949;27;45243;-46
2024/03/05 00:10:21;;;;;;;;;1.00;1.00;;;;;;;;5088995;27;45230;-48
2024/03/05 00:12:47;;;;;;;;;1.00;0.67;;;;;;;;5086377;27;45634;-49
2024/03/05 00:15:12;;;;;;;;;0.67;0.67;;;;;;;;5088128;27;45465;-46
2024/03/05 00:17:37;;;;;;;;;0.00;0.00;;;;;;;;5087445;27;46279;-48
2024/03/05 00:20:02;;;;;;;;;0.00;0.00;;;;;;;;5087691;27;45403;-45
2024/03/05 00:22:28;;;;;;;;;2.67;1.00;;;;;;;;5078564;27;45505;-47
2024/03/05 00:24:53;;;;;;;;;1.00;1.00;;;;;;;;5081216;27;45437;-47
2024/03/05 00:27:18;;;;;;;;;1.00;1.00;;;;;;;;5078655;27;46952;-47
2024/03/05 00:29:43;;;;;;;;;2.33;0.00;;;;;;;;5075065;27;45557;-46
2024/03/05 00:32:09;;;;;;;;;0.00;0.00;;;;;;;;5068504;27;45884;-45
2024/03/05 00:34:34;;;;;;;;;1.00;1.00;;;;;;;;5078177;27;45527;-46
2024/03/05 00:36:59;;;;;;;;;1.33;1.00;;;;;;;;5076898;28;47194;-46
2024/03/05 00:39:24;;;;;;;;;0.33;0.00;;;;;;;;5076358;27;45421;-46
2024/03/05 00:41:49;;;;;;;;;3.00;1.00;;;;;;;;5078393;27;45593;-47
2024/03/05 00:44:16;;;;;;;;;1.00;1.00;;;;;;;;5078840;28;45381;-45
2024/03/05 00:46:41;;;;;;;;;2.00;0.67;;;;;;;;5078013;27;47660;-46
2024/03/05 00:49:07;;;;;;;;;1.00;1.00;;;;;;;;5091491;27;45379;-49
2024/03/05 00:51:33;;;;;;;;;1.00;1.00;;;;;;;;5084661;27;45232;-47
2024/03/05 00:53:58;;;;;;;;;2.00;0.00;;;;;;;;5078418;27;45604;-47
2024/03/05 00:56:23;;;;;;;;;1.00;1.00;;;;;;;;5077355;28;46384;-50
2024/03/05 00:58:50;;;;;;;;;0.33;0.00;;;;;;;;5078663;27;45269;-50
2024/03/05 01:01:15;;;;;;;;;0.00;0.00;;;;;;;;5078146;27;45368;-47
2024/03/05 01:03:41;;;;;;;;;1.00;1.00;;;;;;;;5079273;27;45284;-49
2024/03/05 01:06:06;;;;;;;;;0.00;0.00;;;;;;;;5077345;27;45658;-47
2024/03/05 01:08:32;;;;;;;;;1.00;1.00;;;;;;;;5076457;27;45628;-48
2024/03/05 01:10:59;;;;;;;;;2.00;1.33;;;;;;;;5078877;27;45476;-50
2024/03/05 01:13:24;;;;;;;;;0.00;0.00;;;;;;;;5081926;27;45515;-49
2024/03/05 01:15:50;;;;;;;;;3.00;1.00;;;;;;;;5077366;27;45612;-49
2024/03/05 01:18:15;;;;;;;;;1.33;1.00;;;;;;;;5078873;27;45267;-45
2024/03/05 01:20:41;;;;;;;;;1.00;1.00;;;;;;;;5076781;27;45250;-46
2024/03/05 01:23:10;;;;;;;;;1.00;1.00;;;;;;;;5076855;27;45578;-47
2024/03/05 01:25:35;;;;;;;;;5.00;2.00;;;;;;;;5060385;27;46156;-46
2024/03/05 01:28:00;;;;;;;;;3.33;2.00;;;;;;;;5086061;27;45587;-47
2024/03/05 01:30:26;;;;;;;;;2.00;2.00;;;;;;;;5086638;27;45427;-46
2024/03/05 01:32:52;;;;;;;;;1.00;1.00;;;;;;;;5077661;27;45569;-47
2024/03/05 01:35:18;;;;;;;;;3.00;2.00;;;;;;;;5081773;27;45400;-46
2024/03/05 01:37:43;;;;;;;;;2.00;1.67;;;;;;;;5082975;27;45550;-46
2024/03/05 01:40:11;;;;;;;;;2.00;2.00;;;;;;;;5080725;27;45448;-47
2024/03/05 01:42:37;;;;;;;;;5.00;2.00;;;;;;;;5078482;27;45391;-47
2024/03/05 01:45:03;;;;;;;;;2.00;2.00;;;;;;;;5078281;27;46785;-46
2024/03/05 01:47:31;;;;;;;;;1.67;1.67;;;;;;;;5078918;27;45402;-46
2024/03/05 01:49:56;;;;;;;;;1.00;0.00;;;;;;;;5078319;27;45330;-46
2024/03/05 01:52:22;;;;;;;;;2.00;2.00;;;;;;;;5073615;27;45893;-47
2024/03/05 01:54:48;;;;;;;;;5.33;2.00;;;;;;;;5086145;27;46466;-47
2024/03/05 01:57:13;;;;;;;;;2.00;2.00;;;;;;;;5077855;27;45414;-48
2024/03/05 01:59:41;;;;;;;;;3.00;2.00;;;;;;;;5072938;27;45303;-47
2024/03/05 02:02:07;;;;;;;;;2.00;2.00;;;;;;;;5081578;27;45455;-48
2024/03/05 02:04:33;;;;;;;;;2.33;2.00;;;;;;;;5081054;27;45272;-48
2024/03/05 02:07:02;;;;;;;;;1.33;1.33;;;;;;;;5076472;27;45454;-48
2024/03/05 02:09:27;;;;;;;;;2.00;2.00;;;;;;;;5074144;27;45554;-46
2024/03/05 02:11:53;;;;;;;;;1.00;1.00;;;;;;;;5080434;27;45590;-49
2024/03/05 02:14:18;;;;;;;;;3.33;2.67;;;;;;;;5074952;27;45515;-46
2024/03/05 02:16:45;;;;;;;;;2.00;2.00;;;;;;;;5082452;27;45508;-48
2024/03/05 02:19:11;;;;;;;;;1.00;1.00;;;;;;;;5082004;27;45428;-49
2024/03/05 02:21:36;;;;;;;;;1.00;1.00;;;;;;;;5082589;27;45536;-45
2024/03/05 02:24:01;;;;;;;;;2.00;1.00;;;;;;;;5082402;27;45878;-50
2024/03/05 02:26:31;;;;;;;;;2.67;2.00;;;;;;;;5083320;27;45330;-46
2024/03/05 02:28:56;;;;;;;;;2.00;2.00;;;;;;;;5090120;27;45408;-46
2024/03/05 02:31:22;;;;;;;;;3.00;2.00;;;;;;;;5090016;27;45536;-47
2024/03/05 02:33:48;;;;;;;;;2.00;2.00;;;;;;;;5087203;27;46544;-46
2024/03/05 02:36:13;;;;;;;;;0.00;0.00;;;;;;;;5088181;27;45367;-48
2024/03/05 02:38:38;;;;;;;;;2.00;2.00;;;;;;;;5081335;27;45437;-47
2024/03/05 02:41:04;;;;;;;;;3.00;2.00;;;;;;;;5086172;27;45321;-46
2024/03/05 02:43:30;;;;;;;;;2.00;2.00;;;;;;;;5086509;27;45327;-47
2024/03/05 02:45:55;;;;;;;;;3.33;2.00;;;;;;;;5085099;27;45374;-45
2024/03/05 02:48:20;;;;;;;;;5.00;3.00;;;;;;;;5084115;27;45267;-47
2024/03/05 02:50:47;;;;;;;;;2.33;1.00;;;;;;;;5080421;27;45667;-46
2024/03/05 02:53:12;;;;;;;;;3.67;2.67;;;;;;;;5080388;27;46152;-47
2024/03/05 02:55:38;;;;;;;;;2.00;2.00;;;;;;;;5086380;27;45429;-49
2024/03/05 02:58:05;;;;;;;;;3.00;3.00;;;;;;;;5081000;27;45412;-47
2024/03/05 03:00:31;;;;;;;;;1.00;1.00;;;;;;;;5086250;27;45363;-48
2024/03/05 03:02:56;;;;;;;;;4.00;2.00;;;;;;;;5076498;27;45276;-46
2024/03/05 03:05:22;;;;;;;;;1.00;1.00;;;;;;;;5084290;27;45639;-49
2024/03/05 03:07:47;;;;;;;;;2.33;2.00;;;;;;;;5092652;27;45415;-48
2024/03/05 03:10:12;;;;;;;;;1.00;1.00;;;;;;;;5077374;27;45446;-49
2024/03/05 03:12:38;;;;;;;;;4.67;2.33;;;;;;;;5079615;27;45623;-46
2024/03/05 03:15:04;;;;;;;;;2.00;2.00;;;;;;;;5082548;27;45375;-49
2024/03/05 03:17:29;;;;;;;;;1.67;1.00;;;;;;;;5081081;27;45348;-48
2024/03/05 03:19:55;;;;;;;;;1.33;1.33;;;;;;;;5081032;27;45488;-47
2024/03/05 03:22:20;;;;;;;;;2.00;2.00;;;;;;;;5083675;27;45553;-50
2024/03/05 03:24:45;;;;;;;;;1.67;1.33;;;;;;;;5079684;27;45678;-48
2024/03/05 03:27:11;;;;;;;;;3.00;2.00;;;;;;;;5082736;27;45322;-48
2024/03/05 03:29:40;;;;;;;;;3.33;2.00;;;;;;;;5084413;27;45535;-47
2024/03/05 03:32:05;;;;;;;;;2.00;1.33;;;;;;;;5079864;27;48091;-47
2024/03/05 03:34:30;;;;;;;;;2.00;2.00;;;;;;;;5085548;27;45587;-46
2024/03/05 03:36:56;;;;;;;;;2.00;1.67;;;;;;;;5084235;27;45337;-49
2024/03/05 03:39:24;;;;;;;;;2.33;1.67;;;;;;;;5078672;27;45441;-49
2024/03/05 03:41:55;;;;;;;;;2.00;2.00;;;;;;;;5079632;27;45497;-47
2024/03/05 03:44:22;;;;;;;;;2.33;1.33;;;;;;;;5082155;27;45381;-46
2024/03/05 03:46:47;;;;;;;;;2.00;2.00;;;;;;;;5085438;27;45417;-46
2024/03/05 03:49:14;;;;;;;;;0.33;0.33;;;;;;;;5077153;27;45317;-46
2024/03/05 03:51:39;;;;;;;;;3.67;2.00;;;;;;;;5090791;27;46374;-47
2024/03/05 03:54:04;;;;;;;;;4.00;2.33;;;;;;;;5086856;27;45348;-49
2024/03/05 03:56:30;;;;;;;;;3.00;2.00;;;;;;;;5084954;27;45290;-47
2024/03/05 03:58:56;;;;;;;;;1.33;1.00;;;;;;;;5079236;27;45371;-47
2024/03/05 04:01:22;;;;;;;;;1.33;1.33;;;;;;;;5084067;27;45458;-47
2024/03/05 04:03:47;;;;;;;;;5.00;3.00;;;;;;;;5082031;27;45274;-47
2024/03/05 04:06:12;;;;;;;;;4.33;1.00;;;;;;;;5087140;27;45318;-47
2024/03/05 04:08:38;;;;;;;;;5.33;4.33;;;;;;;;5083942;27;45452;-49
2024/03/05 04:11:03;;;;;;;;;3.33;2.00;;;;;;;;5084246;27;46010;-48
2024/03/05 04:13:28;;;;;;;;;3.67;2.67;;;;;;;;5086027;27;46942;-48
2024/03/05 04:15:54;;;;;;;;;2.67;2.67;;;;;;;;5086448;27;45718;-47
2024/03/05 04:18:21;;;;;;;;;3.00;3.00;;;;;;;;5082982;27;45286;-46
2024/03/05 04:20:46;;;;;;;;;2.33;2.00;;;;;;;;5088676;27;46418;-46
2024/03/05 04:23:11;;;;;;;;;2.33;1.67;;;;;;;;5080886;27;45840;-46
2024/03/05 04:25:39;;;;;;;;;2.00;1.00;;;;;;;;5089776;27;45317;-48
2024/03/05 04:28:10;;;;;;;;;2.67;2.33;;;;;;;;5076996;27;45400;-50
2024/03/05 04:30:37;;;;;;;;;2.00;2.00;;;;;;;;5078172;28;46084;-47
2024/03/05 04:33:08;;;;;;;;;3.00;1.00;;;;;;;;5081312;27;45402;-46
2024/03/05 04:35:33;;;;;;;;;2.67;2.33;;;;;;;;5079480;27;45284;-49
2024/03/05 04:37:58;;;;;;;;;3.00;2.00;;;;;;;;5084662;27;45383;-48
2024/03/05 04:40:23;;;;;;;;;3.00;1.00;;;;;;;;5089584;27;45353;-47
2024/03/05 04:42:49;;;;;;;;;4.00;3.00;;;;;;;;5084254;27;45491;-46
2024/03/05 04:45:15;;;;;;;;;3.00;2.00;;;;;;;;5085895;27;45271;-48
2024/03/05 04:47:40;;;;;;;;;4.00;4.00;;;;;;;;5077600;27;45791;-48
2024/03/05 04:50:05;;;;;;;;;4.00;2.33;;;;;;;;5076632;27;46213;-48
2024/03/05 04:52:30;;;;;;;;;2.00;2.00;;;;;;;;5079534;27;45413;-48
2024/03/05 04:54:56;;;;;;;;;4.00;3.00;;;;;;;;5089194;27;45280;-47
2024/03/05 04:57:21;;;;;;;;;4.00;4.00;;;;;;;;5084194;27;45550;-47
2024/03/05 04:59:46;;;;;;;;;7.00;3.00;;;;;;;;5078135;27;46159;-47
2024/03/05 05:02:11;;;;;;;;;9.00;4.00;;;;;;;;5076361;27;45774;-46
2024/03/05 05:04:41;;;;;;;;;7.33;3.00;;;;;;;;5083488;27;45272;-47
2024/03/05 05:07:07;;;;;;;;;3.67;3.00;;;;;;;;5080746;27;45375;-50
2024/03/05 05:09:32;;;;;;;;;2.00;2.00;;;;;;;;5086411;27;46048;-46
2024/03/05 05:11:58;;;;;;;;;4.33;3.00;;;;;;;;5081417;27;45605;-46
2024/03/05 05:14:23;;;;;;;;;2.00;2.00;;;;;;;;5085750;27;45753;-48
2024/03/05 05:16:48;;;;;;;;;6.67;3.33;;;;;;;;5078716;28;45369;-48
2024/03/05 05:19:15;;;;;;;;;4.00;2.00;;;;;;;;5084557;27;45235;-50
2024/03/05 05:21:41;;;;;;;;;4.00;3.00;;;;;;;;5078218;27;45412;-47
2024/03/05 05:24:06;;;;;;;;;1.00;1.00;;;;;;;;5077833;27;45398;-50
2024/03/05 05:26:32;;;;;;;;;4.00;2.00;;;;;;;;5076401;27;45959;-49
2024/03/05 05:28:57;;;;;;;;;4.00;2.67;;;;;;;;5087779;27;46088;-48
2024/03/05 05:31:25;;;;;;;;;4.33;2.33;;;;;;;;5076999;27;45449;-47
2024/03/05 05:33:50;;;;;;;;;5.33;5.33;;;;;;;;5090787;27;45591;-46
2024/03/05 05:36:15;;;;;;;;;4.00;3.00;;;;;;;;5088992;27;45483;-48
2024/03/05 05:38:41;;;;;;;;;3.00;3.00;;;;;;;;5092278;27;46522;-48
2024/03/05 05:41:06;;;;;;;;;3.00;1.00;;;;;;;;5087143;27;45353;-48
2024/03/05 05:43:33;;;;;;;;;5.67;5.67;;;;;;;;5088286;27;46361;-48
2024/03/05 05:45:58;;;;;;;;;3.00;3.00;;;;;;;;5088550;27;45523;-49
2024/03/05 05:48:26;;;;;;;;;4.00;3.00;;;;;;;;5083102;27;47177;-47
2024/03/05 05:50:54;;;;;;;;;3.67;2.67;;;;;;;;5087404;27;45875;-48
2024/03/05 05:53:19;;;;;;;;;3.67;2.33;;;;;;;;5087693;27;45432;-47
2024/03/05 05:55:45;;;;;;;;;5.00;3.00;;;;;;;;5082064;27;45567;-46
2024/03/05 05:58:13;;;;;;;;;4.00;2.67;;;;;;;;5086063;27;46066;-48
2024/03/05 06:00:39;;;;;;;;;3.33;3.33;;;;;;;;5080271;27;45353;-49
2024/03/05 06:03:07;;;;;;;;;7.00;4.00;;;;;;;;5080416;27;45214;-48
2024/03/05 06:05:35;;;;;;;;;3.00;3.00;;;;;;;;5087251;27;45526;-48
2024/03/05 06:08:00;;;;;;;;;2.00;2.00;;;;;;;;5078927;27;47034;-47
2024/03/05 06:10:25;;;;;;;;;4.67;4.67;;;;;;;;5080626;27;45429;-50
2024/03/05 06:12:51;;;;;;;;;4.00;4.00;;;;;;;;5093549;27;45303;-50
2024/03/05 06:15:19;;;;;;;;;3.67;3.67;;;;;;;;5081135;27;45315;-50
2024/03/05 06:17:45;;;;;;;;;2.67;2.67;;;;;;;;5086718;27;45482;-45
2024/03/05 06:20:10;;;;;;;;;4.00;2.67;;;;;;;;5084619;27;45462;-47
2024/03/05 06:22:43;;;;;;;;;3.00;3.00;;;;;;;;5087438;27;46571;-49
2024/03/05 06:25:08;;;;;;;;;3.00;3.00;;;;;;;;5077063;27;45469;-49
2024/03/05 06:27:34;;;;;;;;;3.33;2.00;;;;;;;;5079795;27;47087;-47
2024/03/05 06:30:00;;;;;;;;;4.00;4.00;;;;;;;;5085043;27;45439;-47
2024/03/05 06:32:25;;;;;;;;;3.33;3.00;;;;;;;;5088199;27;45382;-48
2024/03/05 06:34:50;;;;;;;;;2.33;2.00;;;;;;;;5084922;27;45460;-48
2024/03/05 06:37:15;;;;;;;;;5.67;2.67;;;;;;;;5083409;27;46854;-49
2024/03/05 06:39:41;;;;;;;;;4.00;2.00;;;;;;;;5082584;27;45687;-47
2024/03/05 06:42:10;;;;;;;;;2.00;2.00;;;;;;;;5079320;27;45472;-50
2024/03/05 06:44:36;;;;;;;;;3.00;3.00;;;;;;;;5078107;28;45844;-49
2024/03/05 06:47:01;;;;;;;;;2.00;2.00;;;;;;;;5078565;28;46326;-48
2024/03/05 06:49:29;;;;;;;;;4.00;3.00;;;;;;;;5079589;27;45436;-49
2024/03/05 06:56:38;;;;;;;;;5.67;3.00;;;;;;;;5067729;28;45530;-50
2024/03/05 06:57:23;;;;;;;;;3.67;3.33;;;;;;;;5079272;28;45776;-47
2024/03/05 06:59:49;;;;;;;;;5.00;2.67;;;;;;;;5078954;27;45410;-49
2024/03/05 07:02:14;;;;;;;;;5.33;3.67;;;;;;;;5080245;27;45587;-48
2024/03/05 07:04:40;;;;;;;;;2.33;2.33;;;;;;;;5079020;28;45465;-47
2024/03/05 07:07:06;;;;;;;;;4.33;4.33;;;;;;;;5083419;27;45349;-48
2024/03/05 07:09:32;;;;;;;;;1.00;1.00;;;;;;;;5078988;27;45525;-48
2024/03/05 07:11:57;;;;;;;;;4.00;2.33;;;;;;;;5089608;27;45348;-47
2024/03/05 07:14:22;;;;;;;;;7.00;4.00;;;;;;;;5084603;27;45395;-49
2024/03/05 07:16:47;;;;;;;;;4.00;4.00;;;;;;;;5076905;27;45503;-46
2024/03/05 07:19:12;;;;;;;;;12.00;5.33;;;;;;;;5078343;27;45429;-48
2024/03/05 07:21:38;;;;;;;;;2.67;2.33;;;;;;;;5078541;27;45332;-47
2024/03/05 07:24:04;;;;;;;;;2.00;2.00;;;;;;;;5078699;27;45433;-46
2024/03/05 07:26:31;;;;;;;;;7.00;3.00;;;;;;;;5075358;27;46470;-48
2024/03/05 07:28:57;;;;;;;;;3.67;2.67;;;;;;;;5075190;27;45484;-46
2024/03/05 07:31:23;;;;;;;;;2.67;2.67;;;;;;;;5074860;27;45516;-48
2024/03/05 07:33:49;;;;;;;;;2.00;2.00;;;;;;;;5068666;27;45513;-48
2024/03/05 07:36:14;;;;;;;;;4.00;4.00;;;;;;;;5070171;27;46346;-49
2024/03/05 07:38:39;;;;;;;;;3.00;3.00;;;;;;;;5068212;27;45765;-48
2024/03/05 07:41:07;;;;;;;;;3.00;2.00;;;;;;;;5071984;27;45310;-46
2024/03/05 07:43:32;;;;;;;;;1.00;1.00;;;;;;;;5073683;27;45633;-47
2024/03/05 07:45:57;;;;;;;;;3.67;2.67;;;;;;;;5071999;27;48222;-48
2024/03/05 07:48:22;;;;;;;;;3.00;2.00;;;;;;;;5077889;27;45474;-48
2024/03/05 07:50:49;;;;;;;;;3.33;2.00;;;;;;;;5079498;27;45639;-46
2024/03/05 07:53:14;;;;;;;;;3.00;3.00;;;;;;;;5078575;27;45788;-47
2024/03/05 07:55:41;;;;;;;;;3.00;3.00;;;;;;;;5078253;27;46807;-49
2024/03/05 07:58:06;;;;;;;;;2.67;2.67;;;;;;;;5077723;28;45436;-50
2024/03/05 08:00:32;;;;;;;;;3.33;3.00;;;;;;;;5080340;27;45336;-49
2024/03/05 08:02:57;;;;;;;;;1.33;1.33;;;;;;;;5078542;27;45534;-47
2024/03/05 08:05:23;;;;;;;;;2.00;1.00;;;;;;;;5065941;27;46057;-48
2024/03/05 08:07:48;;;;;;;;;1.67;1.67;;;;;;;;5079859;28;45317;-50
2024/03/05 08:10:16;;;;;;;;;1.00;1.00;;;;;;;;5079313;27;45166;-49
2024/03/05 08:12:44;;;;;;;;;1.00;1.00;;;;;;;;5078920;28;45509;-47
2024/03/05 08:15:15;;;;;;;;;0.33;0.33;;;;;;;;5078825;27;46053;-47
2024/03/05 08:17:40;;;;;;;;;1.00;1.00;;;;;;;;5076685;28;45434;-50
2024/03/05 08:20:08;;;;;;;;;1.00;0.00;;;;;;;;5079677;28;45283;-50
2024/03/05 08:22:36;;;;;;;;;1.00;1.00;;;;;;;;5079443;27;45401;-47
2024/03/05 08:25:12;;;;;;;;;0.67;0.67;;;;;;;;5079207;27;45481;-50
2024/03/05 08:27:44;;;;;;;;;1.67;1.00;;;;;;;;5079540;28;45288;-49
2024/03/05 08:30:10;;;;;;;;;0.67;0.00;;;;;;;;5079453;27;45404;-48
2024/03/05 08:32:36;;;;;;;;;0.00;0.00;;;;;;;;5078782;27;45584;-50
2024/03/05 08:35:01;;;;;;;;;2.00;1.00;;;;;;;;5079756;27;45331;-48
2024/03/05 08:37:27;;;;;;;;;0.67;0.00;;;;;;;;5079511;27;45460;-51
2024/03/05 08:39:52;;;;;;;;;1.00;1.00;;;;;;;;5078947;28;45472;-47
2024/03/05 08:42:17;;;;;;;;;0.00;0.00;;;;;;;;5076341;27;45302;-50
2024/03/05 08:44:42;;;;;;;;;0.33;0.00;;;;;;;;5076579;27;45423;-50
2024/03/05 08:47:08;;;;;;;;;2.00;0.33;;;;;;;;5077883;27;45346;-51
2024/03/05 08:49:33;;;;;;;;;0.00;0.00;;;;;;;;5074710;28;45316;-48
2024/03/05 08:52:01;;;;;;;;;3.67;2.00;;;;;;;;5078094;27;45632;-48
2024/03/05 08:54:30;;;;;;;;;0.00;0.00;;;;;;;;5074061;28;46218;-48
2024/03/05 08:56:57;;;;;;;;;2.00;0.00;;;;;;;;5077065;27;45321;-49
2024/03/05 08:59:22;;;;;;;;;0.33;0.00;;;;;;;;5073579;28;45694;-48
2024/03/05 09:01:49;;;;;;;;;2.00;0.00;;;;;;;;5077002;27;45452;-51
2024/03/05 09:04:15;;;;;;;;;0.00;0.00;;;;;;;;5074785;28;46264;-47
2024/03/05 09:06:40;;;;;;;;;1.00;0.00;;;;;;;;5076725;28;45350;-49
2024/03/05 09:09:05;;;;;;;;;0.00;0.00;;;;;;;;5073791;28;45145;-48
2024/03/05 09:11:31;;;;;;;;;2.33;1.00;;;;;;;;5075968;27;45275;-48
2024/03/05 09:13:56;;;;;;;;;0.00;0.00;;;;;;;;5076091;27;45565;-48
2024/03/05 09:16:22;;;;;;;;;0.00;0.00;;;;;;;;5076202;27;45242;-50
2024/03/05 09:18:47;;;;;;;;;0.00;0.00;;;;;;;;5079069;28;45381;-50
2024/03/05 09:21:14;;;;;;;;;0.00;0.00;;;;;;;;5076027;27;45352;-49
2024/03/05 09:23:42;;;;;;;;;1.00;0.00;;;;;;;;5070594;28;46559;-50
2024/03/05 09:26:07;;;;;;;;;0.00;0.00;;;;;;;;5074306;27;45451;-48
2024/03/05 09:28:35;;;;;;;;;0.00;0.00;;;;;;;;5079367;27;45417;-50
2024/03/05 09:31:00;;;;;;;;;0.00;0.00;;;;;;;;5080470;27;45340;-48
2024/03/05 09:33:26;;;;;;;;;3.00;0.00;;;;;;;;5078382;28;46122;-51
2024/03/05 09:35:51;;;;;;;;;0.67;0.00;;;;;;;;5080348;27;45716;-48
2024/03/05 09:38:16;;;;;;;;;0.00;0.00;;;;;;;;5079536;27;45551;-48
2024/03/05 09:40:42;;;;;;;;;0.00;0.00;;;;;;;;5079455;27;45369;-52
2024/03/05 09:43:07;;;;;;;;;0.67;0.67;;;;;;;;5078944;27;45549;-51
2024/03/05 09:45:36;;;;;;;;;1.00;0.00;;;;;;;;5080747;27;45449;-49
2024/03/05 09:48:01;;;;;;;;;0.00;0.00;;;;;;;;5080229;27;45287;-49
2024/03/05 09:50:27;;;;;;;;;0.67;0.00;;;;;;;;5080536;27;45508;-47
2024/03/05 09:52:52;;;;;;;;;6.00;2.00;;;;;;;;5078527;27;45473;-48
2024/03/05 09:55:19;;;;;;;;;1.00;1.00;;;;;;;;5080242;27;45338;-49
2024/03/05 09:57:47;;;;;;;;;0.00;0.00;;;;;;;;5068459;27;45261;-50
2024/03/05 10:00:20;;;;;;;;;2.00;0.00;;;;;;;;5080305;27;45498;-51
2024/03/05 10:02:46;;;;;;;;;3.00;0.67;;;;;;;;5079562;27;46347;-50
2024/03/05 10:05:15;;;;;;;;;1.00;0.00;;;;;;;;5076359;27;45408;-50
2024/03/05 10:07:40;;;;;;;;;1.00;0.00;;;;;;;;5061833;27;45329;-48
2024/03/05 10:10:07;;;;;;;;;0.00;0.00;;;;;;;;5076010;28;45353;-48
2024/03/05 10:12:32;;;;;;;;;0.33;0.00;;;;;;;;5072244;27;45419;-48
2024/03/05 10:15:17;;;;;;;;;0.00;0.00;;;;;;;;5063200;28;45197;-49
2024/03/05 10:17:48;;;;;;;;;1.00;0.00;;;;;;;;5070462;28;45385;-49
2024/03/05 10:20:28;;;;;;;;;0.00;0.00;;;;;;;;5079444;27;45483;-47
2024/03/05 10:22:57;;;;;;;;;3.33;1.00;;;;;;;;5081100;27;47060;-48
2024/03/05 10:25:23;;;;;;;;;0.00;0.00;;;;;;;;5075464;28;45407;-48
2024/03/05 10:27:49;;;;;;;;;1.00;1.00;;;;;;;;5076816;27;45491;-48
2024/03/05 10:30:31;;;;;;;;;1.00;1.00;;;;;;;;5081366;27;45349;-48
2024/03/05 10:32:59;;;;;;;;;0.00;0.00;;;;;;;;5074502;27;46198;-48
2024/03/05 10:35:24;;;;;;;;;0.00;0.00;;;;;;;;5071623;28;45283;-47
2024/03/05 10:37:57;;;;;;;;;1.00;1.00;;;;;;;;5079436;28;45301;-48
2024/03/05 10:40:22;;;;;;;;;0.00;0.00;;;;;;;;5062209;28;45528;-50
2024/03/05 10:42:50;;;;;;;;;4.00;2.67;;;;;;;;5078902;28;45370;-48
2024/03/05 10:45:16;;;;;;;;;1.00;1.00;;;;;;;;5070732;27;45417;-48
2024/03/05 10:47:42;;;;;;;;;1.00;1.00;;;;;;;;5079555;28;45299;-49
2024/03/05 10:50:12;;;;;;;;;0.67;0.67;;;;;;;;5081320;27;45346;-49
2024/03/05 10:52:38;;;;;;;;;1.00;1.00;;;;;;;;5068064;27;46082;-47
2024/03/05 10:55:04;;;;;;;;;0.00;0.00;;;;;;;;5069550;27;45353;-47
2024/03/05 10:57:29;;;;;;;;;0.00;0.00;;;;;;;;5080184;28;45430;-47
2024/03/05 10:59:55;;;;;;;;;1.00;1.00;;;;;;;;5069914;27;45377;-50
2024/03/05 11:02:25;;;;;;;;;1.00;0.00;;;;;;;;5061066;28;47335;-50
2024/03/05 11:04:50;;;;;;;;;0.00;0.00;;;;;;;;5069795;28;45542;-50
2024/03/05 11:07:15;;;;;;;;;0.00;0.00;;;;;;;;5073607;27;45494;-47
2024/03/05 11:09:41;;;;;;;;;1.00;1.00;;;;;;;;5084192;27;45457;-47
2024/03/05 11:12:10;;;;;;;;;0.00;0.00;;;;;;;;5082288;27;47123;-48
2024/03/05 11:14:36;;;;;;;;;1.00;1.00;;;;;;;;5081437;27;45318;-48
2024/03/05 11:17:09;;;;;;;;;0.00;0.00;;;;;;;;5081443;27;45288;-48
2024/03/05 11:19:35;;;;;;;;;0.00;0.00;;;;;;;;5081866;27;45379;-47
2024/03/05 11:22:17;;;;;;;;;0.00;0.00;;;;;;;;5079891;27;46458;-51
2024/03/05 11:24:43;;;;;;;;;0.00;0.00;;;;;;;;5081935;27;45272;-51
2024/03/05 11:27:12;;;;;;;;;3.00;0.00;;;;;;;;5081154;27;45303;-50
2024/03/05 11:29:37;;;;;;;;;0.00;0.00;;;;;;;;5082343;27;45539;-49
2024/03/05 11:32:03;;;;;;;;;0.00;0.00;;;;;;;;5070487;27;46246;-47
2024/03/05 11:34:29;;;;;;;;;0.33;0.33;;;;;;;;5082618;27;45300;-48
2024/03/05 11:37:05;;;;;;;;;2.67;1.67;;;;;;;;5080802;27;45291;-47
2024/03/05 11:39:30;;;;;;;;;0.33;0.33;;;;;;;;5082173;27;45545;-51
2024/03/05 11:41:58;;;;;;;;;3.00;1.00;;;;;;;;5081685;27;46542;-47
2024/03/05 11:44:35;;;;;;;;;0.00;0.00;;;;;;;;5082743;27;45393;-48
2024/03/05 11:47:00;;;;;;;;;1.67;1.00;;;;;;;;5082495;27;45314;-48
2024/03/05 11:49:25;;;;;;;;;0.00;0.00;;;;;;;;5083071;27;45611;-49
2024/03/05 11:51:50;;;;;;;;;0.33;0.33;;;;;;;;5081977;27;45632;-47
2024/03/05 11:54:16;;;;;;;;;0.00;0.00;;;;;;;;5081588;27;46084;-47
2024/03/05 11:56:45;;;;;;;;;1.67;1.67;;;;;;;;5077569;27;45479;-49
2024/03/05 11:59:12;;;;;;;;;1.67;1.67;;;;;;;;5070397;27;45302;-50
2024/03/05 12:01:38;;;;;;;;;0.00;0.00;;;;;;;;5083478;27;45525;-47
2024/03/05 12:04:07;;;;;;;;;1.00;1.00;;;;;;;;5070922;27;45696;-48
2024/03/05 12:06:33;;;;;;;;;0.00;0.00;;;;;;;;5071576;27;45354;-50
2024/03/05 12:09:09;;;;;;;;;2.00;1.00;;;;;;;;5080363;27;45581;-50
2024/03/05 12:11:35;;;;;;;;;1.00;1.00;;;;;;;;5080871;27;46347;-50
2024/03/05 12:14:06;;;;;;;;;1.33;0.67;;;;;;;;5079327;27;45906;-48
2024/03/05 12:16:31;;;;;;;;;1.00;1.00;;;;;;;;5081676;27;45399;-49
2024/03/05 12:19:00;;;;;;;;;0.00;0.00;;;;;;;;5080866;27;45436;-47
2024/03/05 12:21:25;;;;;;;;;1.00;1.00;;;;;;;;5081038;27;45457;-51
2024/03/05 12:23:50;;;;;;;;;1.67;0.67;;;;;;;;5080528;27;45291;-51
2024/03/05 12:26:16;;;;;;;;;2.67;1.67;;;;;;;;5080642;27;45299;-49
2024/03/05 12:28:41;;;;;;;;;1.00;1.00;;;;;;;;5080144;27;45617;-48
2024/03/05 12:31:09;;;;;;;;;2.00;2.00;;;;;;;;5068399;27;45734;-50
2024/03/05 12:33:34;;;;;;;;;0.00;0.00;;;;;;;;5080033;27;45310;-47
2024/03/05 12:35:59;;;;;;;;;1.00;1.00;;;;;;;;5080124;27;45307;-50
2024/03/05 12:38:31;;;;;;;;;2.00;0.33;;;;;;;;5068763;27;45557;-48
2024/03/05 12:41:02;;;;;;;;;2.67;2.00;;;;;;;;5080770;27;46765;-46
2024/03/05 12:43:28;;;;;;;;;1.67;0.67;;;;;;;;5080150;27;45418;-47
2024/03/05 12:46:02;;;;;;;;;1.67;0.00;;;;;;;;5081483;27;45284;-52
2024/03/05 12:48:28;;;;;;;;;0.33;0.33;;;;;;;;5080879;27;45704;-47
2024/03/05 12:50:53;;;;;;;;;0.00;0.00;;;;;;;;5081258;27;45980;-50
2024/03/05 12:53:19;;;;;;;;;1.33;0.00;;;;;;;;5079110;27;45403;-50
2024/03/05 12:55:44;;;;;;;;;2.00;1.67;;;;;;;;5077963;27;45223;-49
2024/03/05 12:58:11;;;;;;;;;1.33;0.33;;;;;;;;5080782;27;45330;-48
2024/03/05 13:00:38;;;;;;;;;0.00;0.00;;;;;;;;5081949;27;46298;-49
2024/03/05 13:03:04;;;;;;;;;0.00;0.00;;;;;;;;5070126;27;45354;-50
2024/03/05 13:05:30;;;;;;;;;4.00;2.00;;;;;;;;5079574;27;45452;-51
2024/03/05 13:07:55;;;;;;;;;1.00;0.00;;;;;;;;5072946;27;45427;-51
2024/03/05 13:10:21;;;;;;;;;0.00;0.00;;;;;;;;5085289;27;45744;-51
2024/03/05 13:12:46;;;;;;;;;0.00;0.00;;;;;;;;5079492;27;45467;-51
2024/03/05 13:15:11;;;;;;;;;0.00;0.00;;;;;;;;5078933;27;45452;-50
2024/03/05 13:17:36;;;;;;;;;0.67;0.00;;;;;;;;5079816;27;45243;-49
2024/03/05 13:20:02;;;;;;;;;0.00;0.00;;;;;;;;5079067;27;46705;-48
2024/03/05 13:22:27;;;;;;;;;0.00;0.00;;;;;;;;5079392;27;45401;-48
2024/03/05 13:24:54;;;;;;;;;0.00;0.00;;;;;;;;5078368;27;45331;-48
2024/03/05 13:27:20;;;;;;;;;0.33;0.00;;;;;;;;5082265;27;46115;-50
2024/03/05 13:29:45;;;;;;;;;1.00;1.00;;;;;;;;5084757;27;45241;-50
2024/03/05 13:32:11;;;;;;;;;0.00;0.00;;;;;;;;5081871;27;45376;-51
2024/03/05 13:34:36;;;;;;;;;1.00;1.00;;;;;;;;5085597;27;45438;-51
2024/03/05 13:37:01;;;;;;;;;0.00;0.00;;;;;;;;5082189;27;45634;-48
2024/03/05 13:39:26;;;;;;;;;1.00;1.00;;;;;;;;5078647;27;45805;-51
2024/03/05 13:41:52;;;;;;;;;2.33;0.00;;;;;;;;5079110;27;45743;-51
2024/03/05 13:44:20;;;;;;;;;2.00;1.00;;;;;;;;5077633;27;45432;-50
2024/03/05 13:46:45;;;;;;;;;0.00;0.00;;;;;;;;5078095;27;45429;-50
2024/03/05 13:49:11;;;;;;;;;0.00;0.00;;;;;;;;5079114;27;46349;-50
2024/03/05 13:51:37;;;;;;;;;0.00;0.00;;;;;;;;5079746;27;45518;-51
2024/03/05 13:54:03;;;;;;;;;1.00;0.00;;;;;;;;5078140;27;45391;-49
2024/03/05 13:56:30;;;;;;;;;0.00;0.00;;;;;;;;5077812;27;45288;-49
2024/03/05 13:58:57;;;;;;;;;0.00;0.00;;;;;;;;5081524;27;46459;-49
2024/03/05 14:01:23;;;;;;;;;2.00;0.33;;;;;;;;5064280;27;45421;-51
2024/03/05 14:03:49;;;;;;;;;0.00;0.00;;;;;;;;5077813;27;45318;-50
2024/03/05 14:06:16;;;;;;;;;1.00;1.00;;;;;;;;5075109;27;45457;-50
2024/03/05 14:08:43;;;;;;;;;0.00;0.00;;;;;;;;5079221;27;46576;-47
2024/03/05 14:11:08;;;;;;;;;1.00;1.00;;;;;;;;5082376;27;45239;-47
2024/03/05 14:13:33;;;;;;;;;2.33;1.00;;;;;;;;5082877;27;45432;-48
2024/03/05 14:15:59;;;;;;;;;1.00;1.00;;;;;;;;5083162;27;45432;-47
2024/03/05 14:18:24;;;;;;;;;1.67;1.67;;;;;;;;5082606;27;45447;-48
2024/03/05 14:20:51;;;;;;;;;5.00;2.00;;;;;;;;5082919;27;45327;-50
2024/03/05 14:23:16;;;;;;;;;3.00;2.00;;;;;;;;5081954;27;45406;-48
2024/03/05 14:25:43;;;;;;;;;0.67;0.67;;;;;;;;5082858;27;45294;-47
2024/03/05 14:28:11;;;;;;;;;1.00;1.00;;;;;;;;5082593;27;46398;-47
2024/03/05 14:30:39;;;;;;;;;0.00;0.00;;;;;;;;5081010;27;45539;-46
2024/03/05 14:33:05;;;;;;;;;4.33;2.00;;;;;;;;5080221;27;45504;-47
2024/03/05 14:35:30;;;;;;;;;0.00;0.00;;;;;;;;5073348;27;45351;-47
2024/03/05 14:37:56;;;;;;;;;4.33;2.00;;;;;;;;5083708;27;45325;-48
2024/03/05 14:40:21;;;;;;;;;11.67;5.00;;;;;;;;5082680;27;45478;-47